createdAt,value
2018-06-16T00:01:15.229Z,90.96
2018-06-16T00:03:49.073Z,91.59
2018-06-16T00:06:23.160Z,91.22
2018-06-16T00:08:57.179Z,91.67
2018-06-16T00:11:31.191Z,91.79
2018-06-16T00:14:05.071Z,91.64
2018-06-16T00:16:39.212Z,91.43
2018-06-16T00:19:13.141Z,91.28
2018-06-16T00:21:47.402Z,91.41
2018-06-16T00:24:21.398Z,91.75
2018-06-16T00:26:55.452Z,92.63
2018-06-16T00:29:29.344Z,93.20
2018-06-16T00:32:03.500Z,92.93
2018-06-16T00:34:37.505Z,91.17
2018-06-16T00:37:17.008Z,90.09
2018-06-16T00:39:51.031Z,87.27
2018-06-16T00:42:25.079Z,86.75
2018-06-16T00:44:58.947Z,88.30
2018-06-16T00:47:32.975Z,86.78
2018-06-16T00:50:06.921Z,88.79
2018-06-16T00:52:40.957Z,89.20
2018-06-16T00:55:14.915Z,89.53
2018-06-16T00:57:50.110Z,90.19
2018-06-16T01:00:24.058Z,90.68
2018-06-16T01:02:58.106Z,91.70
2018-06-16T01:05:32.138Z,92.01
2018-06-16T01:08:06.265Z,91.28
2018-06-16T01:10:40.231Z,90.47
2018-06-16T01:13:14.437Z,88.92
2018-06-16T01:15:48.412Z,88.76
2018-06-16T01:18:22.679Z,89.20
2018-06-16T01:20:56.709Z,90.10
2018-06-16T01:23:31.083Z,90.13
2018-06-16T01:26:05.031Z,90.11
2018-06-16T01:28:38.943Z,88.65
2018-06-16T01:31:13.900Z,89.82
2018-06-16T01:33:47.959Z,89.46
2018-06-16T01:36:22.018Z,90.55
2018-06-16T01:38:56.205Z,88.02
2018-06-16T01:41:30.111Z,88.24
2018-06-16T01:44:04.299Z,88.50
2018-06-16T01:46:38.246Z,89.37
2018-06-16T01:49:12.292Z,89.70
2018-06-16T01:51:46.251Z,89.58
2018-06-16T01:54:20.448Z,89.99
2018-06-16T01:56:54.550Z,90.32
2018-06-16T01:59:28.526Z,90.20
2018-06-16T02:02:02.527Z,90.54
2018-06-16T02:04:36.518Z,90.94
2018-06-16T02:07:10.630Z,90.68
2018-06-16T02:09:44.772Z,90.97
2018-06-16T02:12:18.747Z,91.32
2018-06-16T02:14:52.804Z,91.99
2018-06-16T02:17:26.745Z,90.40
2018-06-16T02:20:01.121Z,91.10
2018-06-16T02:22:35.024Z,89.72
2018-06-16T02:25:09.068Z,88.43
2018-06-16T02:27:43.152Z,89.24
2018-06-16T02:30:17.187Z,89.28
2018-06-16T02:32:51.181Z,90.04
2018-06-16T02:35:25.235Z,89.34
2018-06-16T02:37:59.212Z,88.60
2018-06-16T02:40:33.274Z,89.91
2018-06-16T02:43:07.179Z,90.87
2018-06-16T02:45:41.335Z,90.72
2018-06-16T02:48:15.267Z,91.86
2018-06-16T02:50:49.368Z,92.65
2018-06-16T02:53:23.290Z,92.32
2018-06-16T02:55:57.344Z,92.21
2018-06-16T02:58:31.439Z,93.27
2018-06-16T03:01:05.575Z,93.74
2018-06-16T03:03:39.697Z,92.70
2018-06-16T03:06:13.665Z,92.93
2018-06-16T03:08:47.672Z,92.90
2018-06-16T03:11:21.768Z,92.15
2018-06-16T03:13:55.591Z,91.93
2018-06-16T03:16:29.755Z,91.55
2018-06-16T03:19:03.859Z,90.88
2018-06-16T03:21:38.358Z,90.67
2018-06-16T03:24:12.269Z,90.43
2018-06-16T03:26:46.756Z,89.83
2018-06-16T03:29:20.892Z,90.47
2018-06-16T03:31:54.914Z,89.17
2018-06-16T03:34:29.488Z,89.29
2018-06-16T03:37:03.487Z,88.62
2018-06-16T03:39:37.450Z,87.83
2018-06-16T03:42:11.607Z,87.83
2018-06-16T03:44:45.635Z,86.78
2018-06-16T03:47:19.541Z,87.85
2018-06-16T03:49:53.580Z,88.04
2018-06-16T03:52:27.710Z,86.47
2018-06-16T03:55:01.769Z,86.41
2018-06-16T03:57:35.922Z,86.50
2018-06-16T04:00:09.911Z,86.59
2018-06-16T04:02:44.013Z,86.95
2018-06-16T04:05:17.992Z,86.84
2018-06-16T04:07:55.048Z,85.85
2018-06-16T04:10:28.962Z,85.92
2018-06-16T04:13:03.041Z,85.75
2018-06-16T04:15:37.200Z,84.93
2018-06-16T04:18:11.217Z,85.42
2018-06-16T04:20:45.243Z,85.60
2018-06-16T04:23:19.347Z,87.59
2018-06-16T04:25:53.287Z,88.74
2018-06-16T04:28:27.603Z,87.33
2018-06-16T04:31:01.587Z,87.21
2018-06-16T04:33:35.476Z,86.85
2018-06-16T04:36:09.463Z,85.42
2018-06-16T04:38:43.475Z,85.04
2018-06-16T04:41:17.558Z,82.79
2018-06-16T04:43:52.403Z,81.68
2018-06-16T04:46:26.391Z,81.33
2018-06-16T04:49:00.357Z,81.35
2018-06-16T04:51:34.235Z,80.88
2018-06-16T04:54:08.375Z,79.16
2018-06-16T04:56:42.381Z,78.44
2018-06-16T04:59:16.608Z,77.16
2018-06-16T05:01:50.780Z,77.55
2018-06-16T05:04:24.715Z,78.82
2018-06-16T05:06:58.695Z,80.19
2018-06-16T05:09:32.705Z,79.27
2018-06-16T05:12:06.728Z,79.46
2018-06-16T05:14:40.850Z,79.53
2018-06-16T05:17:14.852Z,81.15
2018-06-16T05:19:49.737Z,82.42
2018-06-16T05:22:24.039Z,85.40
2018-06-16T05:24:58.351Z,86.18
2018-06-16T05:27:32.573Z,86.37
2018-06-16T05:30:06.959Z,87.73
2018-06-16T05:32:41.697Z,86.38
2018-06-16T05:35:15.913Z,85.23
2018-06-16T05:40:44.582Z,84.77
2018-06-16T05:43:18.779Z,82.69
2018-06-16T05:45:53.263Z,82.00
2018-06-16T05:48:27.628Z,81.65
2018-06-16T05:51:01.779Z,80.41
2018-06-16T05:53:35.812Z,78.11
2018-06-16T05:56:10.207Z,77.52
2018-06-16T05:58:44.291Z,76.55
2018-06-16T06:01:18.436Z,75.26
2018-06-16T06:03:54.030Z,73.91
2018-06-16T06:06:28.248Z,71.31
2018-06-16T06:09:02.997Z,69.54
2018-06-16T06:11:37.012Z,68.24
2018-06-16T06:14:11.127Z,69.87
2018-06-16T06:16:46.270Z,68.05
2018-06-16T06:19:21.119Z,68.02
2018-06-16T06:21:55.151Z,66.92
2018-06-16T06:24:29.083Z,67.37
2018-06-16T06:27:03.277Z,67.55
2018-06-16T06:29:37.339Z,66.57
2018-06-16T06:32:11.405Z,66.62
2018-06-16T06:34:45.467Z,64.67
2018-06-16T06:37:19.442Z,67.97
2018-06-16T06:39:53.922Z,65.93
2018-06-16T06:42:28.087Z,65.20
2018-06-16T06:45:02.067Z,68.32
2018-06-16T06:47:37.526Z,66.24
2018-06-16T06:50:11.667Z,67.08
2018-06-16T06:52:45.691Z,65.97
2018-06-16T06:55:19.611Z,62.72
2018-06-16T06:57:54.229Z,63.72
2018-06-16T07:00:28.086Z,66.09
2018-06-16T07:03:02.231Z,69.65
2018-06-16T07:05:36.374Z,68.60
2018-06-16T07:08:10.687Z,70.43
2018-06-16T07:10:44.787Z,69.19
2018-06-16T07:13:18.667Z,68.66
2018-06-16T07:15:52.563Z,68.75
2018-06-16T07:18:26.711Z,66.46
2018-06-16T07:21:00.662Z,64.97
2018-06-16T07:23:35.037Z,61.90
2018-06-16T07:26:09.000Z,61.95
2018-06-16T07:28:43.104Z,62.35
2018-06-16T07:31:17.069Z,61.67
2018-06-16T07:33:51.220Z,61.70
2018-06-16T07:36:25.488Z,59.30
2018-06-16T07:38:59.615Z,58.42
2018-06-16T07:41:33.597Z,53.59
2018-06-16T07:44:07.616Z,54.83
2018-06-16T07:46:41.470Z,48.66
2018-06-16T07:49:15.532Z,43.79
2018-06-16T07:51:49.615Z,46.22
2018-06-16T07:54:23.612Z,43.90
2018-06-16T07:56:57.457Z,43.04
2018-06-16T07:59:31.466Z,41.68
2018-06-16T08:02:05.474Z,42.76
2018-06-16T08:04:41.323Z,42.72
2018-06-16T08:07:15.291Z,42.99
2018-06-16T08:09:49.443Z,40.23
2018-06-16T08:12:23.419Z,42.23
2018-06-16T08:14:57.504Z,43.19
2018-06-16T08:17:31.438Z,41.35
2018-06-16T08:20:05.637Z,39.99
2018-06-16T08:22:39.724Z,43.46
2018-06-16T08:25:13.678Z,39.70
2018-06-16T08:27:47.615Z,41.09
2018-06-16T08:30:21.718Z,38.23
2018-06-16T08:32:55.682Z,40.41
2018-06-16T08:35:30.041Z,38.18
2018-06-16T08:38:03.963Z,38.57
2018-06-16T08:40:37.850Z,37.14
2018-06-16T08:43:11.844Z,35.57
2018-06-16T08:45:45.942Z,37.48
2018-06-16T08:48:19.899Z,37.56
2018-06-16T08:50:54.119Z,35.07
2018-06-16T08:53:28.089Z,34.86
2018-06-16T08:56:01.986Z,36.06
2018-06-16T08:58:36.000Z,32.96
2018-06-16T09:02:34.482Z,33.69
2018-06-16T09:05:08.520Z,34.79
2018-06-16T09:07:42.978Z,34.05
2018-06-16T09:10:17.075Z,31.37
2018-06-16T09:12:51.070Z,34.37
2018-06-16T09:15:24.915Z,33.43
2018-06-16T09:17:58.984Z,32.76
2018-06-16T09:20:32.948Z,32.80
2018-06-16T09:23:07.095Z,33.57
2018-06-16T09:25:41.079Z,29.93
2018-06-16T09:28:15.153Z,34.34
2018-06-16T09:30:49.079Z,32.54
2018-06-16T09:33:23.120Z,35.86
2018-06-16T09:35:57.052Z,33.39
2018-06-16T09:38:31.272Z,31.85
2018-06-16T09:41:05.314Z,32.19
2018-06-16T09:43:39.437Z,34.50
2018-06-16T09:46:13.294Z,32.46
2018-06-16T09:48:47.371Z,32.97
2018-06-16T09:51:21.397Z,33.30
2018-06-16T09:53:55.599Z,32.95
2018-06-16T09:56:29.642Z,36.68
2018-06-16T09:59:03.703Z,37.92
2018-06-16T10:01:37.812Z,36.84
2018-06-16T10:04:11.819Z,38.20
2018-06-16T10:06:45.754Z,38.32
2018-06-16T10:09:19.803Z,38.90
2018-06-16T10:11:53.685Z,39.87
2018-06-16T10:14:27.839Z,41.35
2018-06-16T10:17:01.912Z,43.92
2018-06-16T10:19:35.972Z,41.19
2018-06-16T10:22:10.092Z,39.77
2018-06-16T10:24:44.476Z,37.51
2018-06-16T10:27:18.559Z,37.74
2018-06-16T10:29:52.505Z,34.90
2018-06-16T10:32:26.564Z,36.76
2018-06-16T10:35:00.568Z,35.44
2018-06-16T10:37:34.626Z,35.16
2018-06-16T10:40:08.787Z,38.12
2018-06-16T10:42:42.880Z,39.70
2018-06-16T10:45:16.871Z,39.83
2018-06-16T10:47:50.901Z,40.12
2018-06-16T10:50:24.984Z,40.53
2018-06-16T10:52:58.943Z,40.61
2018-06-16T10:55:33.051Z,41.63
2018-06-16T10:58:06.955Z,38.21
2018-06-16T11:00:40.959Z,40.84
2018-06-16T11:03:14.885Z,40.74
2018-06-16T11:05:48.978Z,42.28
2018-06-16T11:08:23.025Z,43.24
2018-06-16T11:10:57.132Z,41.85
2018-06-16T11:13:31.104Z,40.86
2018-06-16T11:16:05.382Z,40.83
2018-06-16T11:18:44.427Z,42.82
2018-06-16T11:21:18.422Z,41.02
2018-06-16T11:23:52.385Z,42.50
2018-06-16T11:26:26.556Z,41.89
2018-06-16T11:29:00.471Z,41.39
2018-06-16T11:31:34.588Z,39.07
2018-06-16T11:34:08.619Z,42.31
2018-06-16T11:36:42.771Z,43.67
2018-06-16T11:39:16.779Z,40.93
2018-06-16T11:41:44.713Z,40.24
2018-06-16T11:44:12.553Z,37.92
2018-06-16T11:46:40.378Z,38.93
2018-06-16T11:49:08.239Z,36.54
2018-06-16T11:51:36.079Z,36.72
2018-06-16T11:54:03.934Z,40.22
2018-06-16T11:56:32.033Z,41.38
2018-06-16T11:58:59.883Z,41.26
2018-06-16T12:01:27.742Z,41.31
2018-06-16T12:03:55.666Z,41.24
2018-06-16T12:06:23.502Z,42.64
2018-06-16T12:08:51.386Z,43.53
2018-06-16T12:11:19.268Z,44.24
2018-06-16T12:13:47.100Z,48.01
2018-06-16T12:16:15.017Z,47.60
2018-06-16T12:18:42.905Z,46.64
2018-06-16T12:21:10.730Z,48.07
2018-06-16T12:23:38.580Z,53.51
2018-06-16T12:26:06.532Z,60.71
2018-06-16T12:28:34.411Z,61.19
2018-06-16T12:31:02.251Z,67.89
2018-06-16T12:33:30.216Z,68.93
2018-06-16T12:35:58.152Z,72.73
2018-06-16T12:38:25.988Z,71.58
2018-06-16T12:40:53.920Z,73.40
2018-06-16T12:43:21.774Z,73.03
2018-06-16T12:45:50.250Z,75.32
2018-06-16T12:48:18.175Z,76.04
2018-06-16T12:50:46.043Z,73.92
2018-06-16T12:53:13.893Z,75.93
2018-06-16T12:55:41.767Z,75.29
2018-06-16T12:58:09.598Z,78.15
2018-06-16T13:00:37.445Z,74.80
2018-06-16T13:03:05.316Z,72.57
2018-06-16T13:05:33.143Z,76.03
2018-06-16T13:08:01.001Z,79.03
2018-06-16T13:10:28.995Z,80.72
2018-06-16T13:12:56.844Z,79.43
2018-06-16T13:15:24.691Z,76.29
2018-06-16T13:17:52.592Z,79.84
2018-06-16T13:20:20.444Z,73.21
2018-06-16T13:22:48.293Z,77.50
2018-06-16T13:25:16.179Z,79.36
2018-06-16T13:27:44.006Z,78.89
2018-06-16T13:30:11.824Z,74.96
2018-06-16T13:32:39.792Z,75.45
2018-06-16T13:35:07.660Z,72.63
2018-06-16T13:37:35.599Z,75.29
2018-06-16T13:40:03.561Z,75.03
2018-06-16T13:42:31.408Z,73.31
2018-06-16T13:44:59.420Z,74.74
2018-06-16T13:47:27.287Z,74.59
2018-06-16T13:49:55.117Z,75.15
2018-06-16T13:52:22.997Z,72.56
2018-06-16T13:54:51.051Z,70.21
2018-06-16T13:57:18.898Z,67.01
2018-06-16T13:59:46.754Z,64.39
2018-06-16T14:02:14.779Z,65.18
2018-06-16T14:04:42.617Z,65.00
2018-06-16T14:07:10.540Z,62.46
2018-06-16T14:09:38.411Z,62.47
2018-06-16T14:12:06.264Z,64.29
2018-06-16T14:14:34.117Z,63.29
2018-06-16T14:17:02.095Z,62.27
2018-06-16T14:19:30.033Z,61.21
2018-06-16T14:21:58.075Z,64.67
2018-06-16T14:24:26.044Z,66.14
2018-06-16T14:26:53.930Z,67.62
2018-06-16T14:29:21.913Z,65.53
2018-06-16T14:31:51.076Z,65.21
2018-06-16T14:34:18.927Z,62.89
2018-06-16T14:36:46.784Z,63.11
2018-06-16T14:39:15.198Z,65.84
2018-06-16T14:41:43.085Z,65.58
2018-06-16T14:44:10.972Z,67.72
2018-06-16T14:46:38.875Z,67.67
2018-06-16T14:49:07.918Z,70.45
2018-06-16T14:51:35.908Z,72.21
2018-06-16T14:54:03.996Z,67.29
2018-06-16T14:56:31.977Z,69.97
2018-06-16T14:59:00.574Z,64.90
2018-06-16T15:01:28.555Z,64.97
2018-06-16T15:03:58.150Z,65.89
2018-06-16T15:06:26.121Z,66.58
2018-06-16T15:08:54.791Z,67.86
2018-06-16T15:11:22.827Z,69.34
2018-06-16T15:13:57.186Z,74.22
2018-06-16T15:16:27.625Z,71.72
2018-06-16T15:18:55.457Z,69.70
2018-06-16T15:21:23.596Z,64.97
2018-06-16T15:23:51.701Z,65.20
2018-06-16T15:26:19.571Z,65.52
2018-06-16T15:28:47.538Z,64.73
2018-06-16T15:31:15.392Z,66.09
2018-06-16T15:33:44.418Z,66.15
2018-06-16T15:36:12.562Z,66.87
2018-06-16T15:38:40.728Z,67.14
2018-06-16T15:41:09.986Z,64.66
2018-06-16T15:43:38.632Z,62.32
2018-06-16T15:46:06.548Z,62.34
2018-06-16T15:48:35.174Z,62.57
2018-06-16T15:51:04.394Z,64.08
2018-06-16T15:53:32.656Z,65.96
2018-06-16T15:56:00.489Z,67.16
2018-06-16T15:58:28.407Z,69.74
2018-06-16T16:00:56.265Z,70.77
2018-06-16T16:03:24.196Z,72.54
2018-06-16T16:05:52.378Z,71.00
2018-06-16T16:08:20.155Z,72.77
2018-06-16T16:10:48.115Z,73.32
2018-06-16T16:13:16.332Z,72.86
2018-06-16T16:15:44.708Z,71.51
2018-06-16T16:18:13.787Z,72.53
2018-06-16T16:20:41.688Z,70.77
2018-06-16T16:23:09.787Z,71.47
2018-06-16T16:25:37.621Z,72.85
2018-06-16T16:28:05.696Z,72.85
2018-06-16T16:30:33.815Z,74.58
2018-06-16T16:33:01.913Z,75.76
2018-06-16T16:35:29.821Z,75.10
2018-06-16T16:37:57.654Z,76.01
2018-06-16T16:40:25.814Z,76.56
2018-06-16T16:42:53.901Z,76.96
2018-06-16T16:45:21.833Z,76.81
2018-06-16T16:47:49.934Z,76.65
2018-06-16T16:50:18.048Z,77.78
2018-06-16T16:52:45.939Z,77.64
2018-06-16T16:55:14.026Z,76.76
2018-06-16T16:57:41.916Z,75.96
2018-06-16T17:00:11.197Z,76.34
2018-06-16T17:02:39.391Z,76.59
2018-06-16T17:05:07.494Z,77.00
2018-06-16T17:07:35.492Z,76.55
2018-06-16T17:10:03.838Z,77.88
2018-06-16T17:12:31.871Z,75.66
2018-06-16T17:15:00.093Z,75.64
2018-06-16T17:17:28.009Z,73.32
2018-06-16T17:19:55.874Z,73.80
2018-06-16T17:22:23.889Z,76.95
2018-06-16T17:24:52.259Z,79.36
2018-06-16T17:27:20.201Z,79.41
2018-06-16T17:29:48.401Z,80.01
2018-06-16T17:32:16.259Z,79.44
2018-06-16T17:34:44.217Z,80.68
2018-06-16T17:37:12.077Z,82.25
2018-06-16T17:39:39.923Z,82.85
2018-06-16T17:42:07.819Z,83.27
2018-06-16T17:44:35.884Z,81.04
2018-06-16T17:47:03.767Z,84.20
2018-06-16T17:49:31.692Z,84.29
2018-06-16T17:51:59.651Z,86.77
2018-06-16T17:54:27.644Z,87.35
2018-06-16T17:56:55.596Z,87.90
2018-06-16T17:59:23.487Z,88.88
2018-06-16T18:01:51.392Z,88.79
2018-06-16T18:04:19.296Z,88.53
2018-06-16T18:06:47.156Z,87.97
2018-06-16T18:09:15.204Z,87.85
2018-06-16T18:11:43.082Z,88.06
2018-06-16T18:14:10.915Z,85.24
2018-06-16T18:16:38.868Z,85.35
2018-06-16T18:19:06.905Z,86.62
2018-06-16T18:21:35.861Z,86.85
2018-06-16T18:24:04.435Z,87.66
2018-06-16T18:26:32.326Z,87.76
2018-06-16T18:29:00.803Z,87.10
2018-06-16T18:31:28.645Z,87.03
2018-06-16T18:33:56.551Z,87.25
2018-06-16T18:36:24.738Z,87.68
2018-06-16T18:45:56.099Z,88.13
2018-06-16T18:48:23.947Z,88.36
2018-06-16T18:50:52.328Z,86.28
2018-06-16T18:53:20.227Z,88.29
2018-06-16T18:55:50.970Z,88.18
2018-06-16T18:58:19.320Z,87.70
2018-06-16T19:00:48.176Z,86.97
2018-06-16T19:03:16.021Z,82.57
2018-06-16T19:05:43.954Z,83.60
2018-06-16T19:10:55.927Z,83.65
2018-06-16T19:13:24.017Z,83.25
2018-06-16T19:15:52.109Z,82.23
2018-06-16T19:18:19.994Z,84.96
2018-06-16T19:20:48.010Z,84.11
2018-06-16T19:23:15.951Z,84.50
2018-06-16T19:25:43.775Z,84.01
2018-06-16T19:28:12.080Z,83.25
2018-06-16T19:30:39.954Z,84.39
2018-06-16T19:33:07.788Z,84.01
2018-06-16T19:35:38.292Z,85.70
2018-06-16T19:38:06.246Z,84.31
2018-06-16T19:40:34.104Z,86.32
2018-06-16T19:43:02.288Z,85.54
2018-06-16T19:45:30.165Z,85.62
2018-06-16T19:47:58.314Z,84.89
2018-06-16T19:50:26.272Z,86.13
2018-06-16T19:52:54.131Z,87.07
2018-06-16T19:55:22.006Z,87.07
2018-06-16T19:57:51.541Z,87.31
2018-06-16T20:00:25.626Z,86.98
2018-06-16T20:02:59.842Z,86.56
2018-06-16T20:05:34.032Z,86.59
2018-06-16T20:08:08.146Z,87.23
2018-06-16T20:10:42.519Z,87.90
2018-06-16T20:13:16.519Z,88.32
2018-06-16T20:15:50.427Z,89.28
2018-06-16T20:18:24.540Z,86.97
2018-06-16T20:20:58.505Z,88.42
2018-06-16T20:23:32.515Z,88.28
2018-06-16T20:26:06.454Z,87.72
2018-06-16T20:28:40.462Z,88.59
2018-06-16T20:31:14.392Z,89.47
2018-06-16T20:33:48.544Z,89.41
2018-06-16T20:36:22.646Z,89.81
2018-06-16T20:38:56.603Z,88.99
2018-06-16T20:41:30.675Z,89.14
2018-06-16T20:44:04.799Z,89.11
2018-06-16T20:53:34.620Z,88.11
2018-06-16T20:56:08.601Z,88.69
2018-06-16T20:58:42.649Z,88.58
2018-06-16T21:01:16.701Z,87.52
2018-06-16T21:03:50.743Z,85.30
2018-06-16T21:06:24.637Z,86.87
2018-06-16T21:08:58.656Z,87.24
2018-06-16T21:11:32.681Z,87.71
2018-06-16T21:14:06.775Z,88.53
2018-06-16T21:16:40.803Z,90.21
2018-06-16T21:19:14.823Z,90.70
2018-06-16T21:21:48.786Z,90.61
2018-06-16T21:24:22.756Z,90.28
2018-06-16T21:26:56.791Z,90.97
2018-06-16T21:29:30.787Z,90.53
2018-06-16T21:32:05.673Z,90.37
2018-06-16T21:34:40.112Z,90.32
2018-06-16T21:37:14.447Z,90.41
2018-06-16T21:39:48.566Z,89.97
2018-06-16T21:42:22.753Z,90.10
2018-06-16T21:44:58.327Z,89.78
2018-06-16T21:47:40.367Z,89.99
2018-06-16T21:50:17.444Z,89.73
2018-06-16T21:52:51.420Z,90.23
2018-06-16T21:55:27.559Z,89.81
2018-06-16T21:58:01.711Z,89.89
2018-06-16T22:00:41.020Z,89.58
2018-06-16T22:03:15.031Z,89.74
2018-06-16T22:05:49.033Z,90.03
2018-06-16T22:08:30.977Z,89.52
2018-06-16T22:11:05.035Z,89.40
2018-06-16T22:13:38.978Z,89.58
2018-06-16T22:16:13.016Z,89.55
2018-06-16T22:18:46.975Z,89.30
2018-06-16T22:21:20.893Z,89.13
2018-06-16T22:23:55.150Z,88.80
2018-06-16T22:26:29.170Z,88.60
2018-06-16T22:29:03.128Z,88.17
2018-06-16T22:31:37.139Z,88.49
2018-06-16T22:34:11.067Z,88.83
2018-06-16T22:36:45.165Z,88.90
2018-06-16T22:39:19.292Z,90.16
2018-06-16T22:41:53.365Z,90.55
2018-06-16T22:44:27.270Z,90.95
2018-06-16T22:47:01.370Z,91.89
2018-06-16T22:49:35.327Z,90.54
2018-06-16T22:52:09.672Z,90.62
2018-06-16T22:54:43.607Z,90.30
2018-06-16T22:57:17.812Z,90.44
2018-06-16T22:59:51.805Z,90.37
2018-06-16T23:02:25.869Z,91.65
2018-06-16T23:04:59.942Z,91.36
2018-06-16T23:07:33.938Z,90.73
2018-06-16T23:10:07.882Z,90.51
2018-06-16T23:12:41.894Z,90.22
2018-06-16T23:15:15.994Z,90.86
2018-06-16T23:17:49.924Z,91.09
2018-06-16T23:20:24.007Z,91.73
2018-06-16T23:22:57.986Z,92.10
2018-06-16T23:25:31.904Z,91.85
2018-06-16T23:28:06.000Z,91.37
2018-06-16T23:30:39.950Z,91.44
2018-06-16T23:33:13.982Z,91.85
2018-06-16T23:35:48.016Z,90.07
2018-06-16T23:38:22.070Z,91.75
2018-06-16T23:40:55.970Z,91.41
2018-06-16T23:43:30.065Z,91.04
2018-06-16T23:46:04.109Z,90.61
2018-06-16T23:48:38.205Z,90.96
2018-06-16T23:51:12.113Z,91.75
2018-06-16T23:53:46.094Z,91.95
2018-06-16T23:56:20.060Z,92.25
2018-06-16T23:58:54.269Z,91.22
